Overview Statistics Trail Chart Weather Telemetry Raw packets
 

This is the latest recevied weather packets stored in our database for station/object LRTR. If no packets are shown the sender has not sent any weather packets the latest 10 day(s).

<< 4 5 6 7 8 9 10 >>
Time Temp. Humidity Pressure Rain* Wind** Luminosity Snow
1777593785 1.11° C 93% 1025 hPa - - - -
1777592885 2.22° C 81% 1025 hPa - - - -
1777591985 2.22° C 81% 1025 hPa - - - -
1777591085 2.22° C 75% 1025 hPa - - - -
1777590185 2.22° C 75% 1025 hPa - - - -
1777589285 2.22° C 70% 1025 hPa - - - -
1777588385 2.22° C 70% 1025 hPa - - - -
1777587484 2.78° C 65% 1025 hPa - - - -
1777586585 2.78° C 65% 1025 hPa - - - -
1777585685 2.78° C 70% 1025 hPa - - - -
1777584785 2.78° C 70% 1025 hPa - - - -
1777583885 3.89° C 65% 1025 hPa - - - -
1777582988 3.89° C 65% 1025 hPa - - - -
1777582085 5° C 57% 1025 hPa - - - -
1777581185 5° C 57% 1025 hPa - - - -
1777580285 6.11° C 53% 1025 hPa - - - -
1777579385 6.11° C 53% 1025 hPa - - - -
1777578485 5° C 66% 1025 hPa - - - -
1777577606 5° C 66% 1025 hPa - - - -
1777576688 5° C 66% 1024 hPa - - - -
1777575785 5° C 66% 1024 hPa - - - -
1777574885 6.11° C 66% 1024 hPa - - - -
1777573985 6.11° C 66% 1024 hPa - - - -
1777573085 8.89° C 50% 1024 hPa - - - -
1777572185 8.89° C 50% 1024 hPa - - - -

* Rain since midnight (hover to see other rain measurements)
** Current wind speed in m/s (hover to see current wind gust speed)